Riverdance — C6CG3 — position and weather

sailwx.info

Track history (hours):
 
Tides and Currents Weather Stations Pressure Air Temp Water Temp Dewpoint Dewpoint Depression Visibility Wind Speed Wind Dir Waves Ship Positions

Riverdance

Operator: Crescent Marine Services Ltd

Last reported at 2018-May-24 01:15 UTC. Time now 2018-May-24 09:45 UTC.
Position N 58°40' E 001°50'.

Length 72 m; draft 5.8 m.

Type: Other ship. MMSI: 311000463.

Date/timePositionNaut miles runAvg speedWind from/ knotsBaromVisibWave heightAir tempDewpointWater temp
2018-May-24 01:15N 58°40' E 001°50'0 0.1
2018-May-23 21:29N 58°40' E 001°49'  
2018-May-21 16:10N 58°32' E 001°36'1 3.4
2018-May-21 15:59N 58°32' E 001°36'2 3.2
2018-May-21 15:25N 58°34' E 001°36'4 0.2
2018-May-20 10:00N 58°38' E 001°37'0 0.4
2018-May-20 09:26N 58°39' E 001°37'2 0.4
2018-May-20 05:22N 58°40' E 001°38'1 0.3
2018-May-20 02:08N 58°41' E 001°40'0 0.5
2018-May-20 01:55N 58°41' E 001°40'0 0.5
2018-May-20 01:29N 58°41' E 001°40'0 0.4
2018-May-20 00:57N 58°41' E 001°40'1 0.4
2018-May-19 22:53N 58°42' E 001°41'1 3.5
2018-May-19 22:28N 58°40' E 001°40'2 3.5
2018-May-19 21:59N 58°39' E 001°39'2 3.5
2018-May-19 21:28N 58°37' E 001°37'5 0.7
2018-May-19 14:42N 58°40' E 001°44'35 1.8
2018-May-18 19:08N 59°16' E 001°45'1 2.5
2018-May-18 18:54N 59°16' E 001°45'  
2018-May-15 20:14N 59°23' E 001°53'  
Track history (hours):
 
Tides and Currents Weather Stations Pressure Air Temp Water Temp Dewpoint Dewpoint Depression Visibility Wind Speed Wind Dir Waves Ship Positions

Riverdance

Operator: Crescent Marine Services Ltd

Last reported at 2018-May-24 01:15 UTC. Time now 2018-May-24 09:45 UTC.
Position N 58°40' E 001°50'.

Length 72 m; draft 5.8 m.

Type: Other ship. MMSI: 311000463.

Date/timePositionNaut miles runAvg speedWind from/ knotsBaromVisibWave heightAir tempDewpointWater temp
2018-May-24 01:15N 58°40' E 001°50'0 0.1
2018-May-23 21:29N 58°40' E 001°49'  
2018-May-21 16:10N 58°32' E 001°36'1 3.4
2018-May-21 15:59N 58°32' E 001°36'2 3.2
2018-May-21 15:25N 58°34' E 001°36'4 0.2
2018-May-20 10:00N 58°38' E 001°37'0 0.4
2018-May-20 09:26N 58°39' E 001°37'2 0.4
2018-May-20 05:22N 58°40' E 001°38'1 0.3
2018-May-20 02:08N 58°41' E 001°40'0 0.5
2018-May-20 01:55N 58°41' E 001°40'0 0.5
2018-May-20 01:29N 58°41' E 001°40'0 0.4
2018-May-20 00:57N 58°41' E 001°40'1 0.4
2018-May-19 22:53N 58°42' E 001°41'1 3.5
2018-May-19 22:28N 58°40' E 001°40'2 3.5
2018-May-19 21:59N 58°39' E 001°39'2 3.5
2018-May-19 21:28N 58°37' E 001°37'5 0.7
2018-May-19 14:42N 58°40' E 001°44'35 1.8
2018-May-18 19:08N 59°16' E 001°45'1 2.5
2018-May-18 18:54N 59°16' E 001°45'  
2018-May-15 20:14N 59°23' E 001°53'  

Dump ship's entire track history